Weather observations for the past three days for
Juneau, Juneau International Airport
| Date | Time (akdt) | Wind (mph) | Vis. (mi.) | Weather | Sky Cond. | Temperature (ºF) | Relative Humidity | Wind Chill (°F) | Heat Index (°F) | Pressure | Precipitation (in) | ||||||
|---|---|---|---|---|---|---|---|---|---|---|---|---|---|---|---|---|---|
| Air | Dwpt | 6 hour | altimeter (in) | sea level (mb) | 1 hr | 3 hr | 6 hr | ||||||||||
| Max. | Min. | ||||||||||||||||
| 02 | 11:53 | E 12 | 10.00 | Light Rain | FEW003 SCT015 OVC024 | 46 | 44.1 | 93% | 41 | 30.27 | 1025.0 | ||||||
| 02 | 10:53 | E 13 | 7.00 | Light Rain | FEW003 SCT015 OVC027 | 45 | 43 | 93% | 39 | 30.25 | 1024.4 | ||||||
| 02 | 09:53 | E 9 | 8.00 | Light Rain | FEW004 SCT014 OVC028 | 45 | 42.1 | 45 | 44.1 | 90% | 41 | 30.25 | 1024.2 | 0.04 | |||
| 02 | 08:53 | E 10 | 8.00 | Overcast | FEW005 SCT016 OVC029 | 45 | 42.1 | 90% | 40 | 30.23 | 1023.6 | ||||||
| 02 | 07:53 | E 12 | 8.00 | Overcast | FEW005 SCT018 OVC032 | 44.1 | 42.1 | 93% | 39 | 30.22 | 1023.2 | ||||||
| 02 | 06:53 | E 13 | 7.00 | Light Rain | FEW004 BKN028 OVC044 | 44.1 | 41 | 89% | 38 | 30.21 | 1022.9 | 0.01 | 0.04 | ||||
| 02 | 05:53 | E 13 | 6.00 | Light Rain Fog/Mist | FEW004 BKN029 OVC042 | 44.1 | 42.1 | 93% | 38 | 30.21 | 1023.0 | 0.02 | |||||
| 02 | 04:53 | E 9 | 5.00 | Light Rain Fog/Mist | FEW005 SCT015 OVC028 | 45 | 43 | 93% | 41 | 30.21 | 1022.9 | 0.01 | |||||
| 02 | 03:53 | E 10 | 10.00 | Light Rain | FEW010 BKN032 OVC045 | 45 | 43 | 48 | 44.1 | 93% | 40 | 30.2 | 1022.5 | 0.04 | |||
| 02 | 02:53 | E 10 | 10.00 | Light Rain | FEW010 SCT030 OVC050 | 44.1 | 41 | 89% | 39 | 30.19 | 1022.2 | 0.01 | |||||
| 02 | 01:53 | E 12 | 10.00 | Light Rain | FEW015 BKN035 OVC050 | 45 | 42.1 | 90% | 40 | 30.19 | 1022.4 | 0.02 | |||||
| 02 | 00:53 | E 9 | 10.00 | Light Rain | FEW024 SCT035 OVC050 | 45 | 41 | 86% | 41 | 30.21 | 1023.1 | 0.01 | 0.01 | ||||
| 01 | 23:53 | E 8 | 10.00 | Light Rain | FEW038 BKN050 OVC060 | 46 | 43 | 89% | 42 | 30.24 | 1023.8 | ||||||
| 01 | 22:53 | E 14 | 10.00 | Overcast | FEW033 BKN042 OVC075 | 46.9 | 42.1 | 83% | 42 | 30.22 | 1023.2 | ||||||
| 01 | 21:53 | SE 16 | 10.00 | Overcast | SCT032 BKN046 OVC085 | 48 | 42.1 | 55 | 46 | 80% | 42 | 30.2 | 1022.6 | ||||
| 01 | 20:53 | E 12 | 10.00 | Mostly Cloudy | SCT032 BKN055 BKN090 | 46.9 | 42.1 | 83% | 42 | 30.2 | 1022.5 | ||||||
| 01 | 19:53 | E 10 | 10.00 | Mostly Cloudy | SCT036 BKN055 BKN180 | 46.9 | 42.1 | 83% | 43 | 30.2 | 1022.7 | ||||||
| 01 | 18:53 | E 13 | 10.00 | Mostly Cloudy | SCT033 BKN047 BKN180 | 48.9 | 43 | 80% | 44 | 30.21 | 1022.9 | ||||||
| 01 | 17:53 | SE 13 | 10.00 | Mostly Cloudy | SCT033 BKN040 BKN055 BKN180 | 52 | 43 | 72% | 30.22 | 1023.2 | |||||||
| 01 | 16:53 | E 13 | 10.00 | Mostly Cloudy | SCT030 BKN055 BKN180 BKN250 | 52 | 43 | 72% | 30.21 | 1023.1 | |||||||
| 01 | 15:53 | S 9 G 17 | 10.00 | Mostly Cloudy | SCT030 BKN040 BKN180 BKN250 | 55 | 41 | 57 | 46 | 59% | 30.23 | 1023.6 | |||||
| 01 | 14:53 | SE 10 G 18 | 10.00 | Mostly Cloudy | FEW036 SCT045 BKN075 BKN180 | 53.1 | 41 | 64% | 30.23 | 1023.6 | |||||||
| 01 | 13:53 | E 13 | 10.00 | Mostly Cloudy | FEW028 SCT048 BKN080 BKN140 | 52 | 42.1 | 69% | 30.23 | 1023.6 | |||||||
| 01 | 12:53 | Vrbl 5 | 10.00 | Mostly Cloudy | FEW027 SCT041 BKN050 BKN140 | 53.1 | 37.9 | 57% | 30.24 | 1024.1 | |||||||
| 01 | 11:53 | SW 9 | 10.00 | Mostly Cloudy | FEW026 BKN043 BKN085 | 50 | 39 | 66% | 47 | 30.24 | 1024.0 | ||||||
| 01 | 10:53 | SW 3 | 10.00 | Mostly Cloudy | FEW025 SCT038 BKN047 BKN140 | 48.9 | 41 | 74% | 30.23 | 1023.6 | |||||||
| 01 | 09:53 | Calm | 10.00 | Mostly Cloudy | FEW021 BKN036 BKN049 | 46 | 37.9 | 46 | 39 | 73% | 30.24 | 1023.8 | |||||
| 01 | 08:53 | Calm | 10.00 | Mostly Cloudy | FEW012 BKN034 BKN048 | 44.1 | 37.9 | 79% | 30.24 | 1023.9 | |||||||
| 01 | 07:53 | Calm | 10.00 | Overcast | FEW009 SCT026 OVC035 | 42.1 | 39 | 89% | 30.23 | 1023.8 | |||||||
| 01 | 06:53 | Calm | 10.00 | Overcast | FEW007 FEW024 OVC043 | 41 | 37.9 | 89% | 30.22 | 1023.3 | |||||||
| 01 | 05:53 | Calm | 10.00 | Overcast | FEW007 FEW024 OVC043 | 39.9 | 37.9 | 93% | 30.22 | 1023.2 | |||||||
| 01 | 04:53 | SW 3 | 10.00 | Overcast | FEW007 FEW027 OVC043 | 39 | 37.9 | 96% | 30.21 | 1022.9 | |||||||
| 01 | 03:53 | Calm | 10.00 | Overcast | FEW005 OVC042 | 39 | 39 | 44.1 | 39 | 100% | 30.21 | 1022.9 | |||||
| 01 | 02:53 | Calm | 10.00 | Mostly Cloudy | FEW012 BKN045 | 39.9 | 39 | 97% | 30.21 | 1022.9 | |||||||
| 01 | 01:53 | Calm | 10.00 | Overcast | FEW007 OVC046 | 41 | 39 | 93% | 30.21 | 1023.1 | |||||||
| 01 | 00:53 | Calm | 10.00 | Overcast | FEW007 OVC043 | 41 | 39 | 93% | 30.21 | 1023.1 | |||||||
| 30 | 23:53 | Calm | 10.00 | Mostly Cloudy | FEW005 BKN027 BKN048 | 43 | 41 | 93% | 30.21 | 1023.1 | |||||||
| 30 | 22:53 | Calm | 10.00 | Overcast | BKN027 OVC050 | 44.1 | 39.9 | 85% | 30.21 | 1023.0 | |||||||
| 30 | 21:53 | NE 3 | 10.00 | Overcast | FEW023 BKN033 OVC048 | 44.1 | 42.1 | 51.1 | 44.1 | 93% | 30.2 | 1022.7 | |||||
| 30 | 20:53 | Calm | 10.00 | Overcast | FEW024 BKN035 OVC048 | 46 | 37.9 | 73% | 30.19 | 1022.4 | |||||||
| 30 | 19:53 | NW 5 | 10.00 | Mostly Cloudy | SCT024 BKN029 BKN048 | 46.9 | 37.9 | 71% | 45 | 30.18 | 1022.1 | ||||||
| 30 | 18:53 | NW 6 | 10.00 | Mostly Cloudy | SCT036 BKN047 BKN150 | 48.9 | 37.9 | 66% | 47 | 30.18 | 1022.1 | ||||||
| 30 | 17:53 | W 9 | 10.00 | Mostly Cloudy | FEW030 BKN042 BKN150 | 48.9 | 37.9 | 66% | 45 | 30.18 | 1022.0 | ||||||
| 30 | 16:53 | NW 8 | 10.00 | Mostly Cloudy | SCT037 BKN045 BKN150 | 50 | 39 | 66% | 47 | 30.18 | 1022.0 | ||||||
| 30 | 15:53 | W 8 | 10.00 | Mostly Cloudy | SCT037 BKN049 BKN150 | 51.1 | 39.9 | 52 | 48 | 66% | 30.18 | 1022.0 | 0.01 | ||||
| 30 | 14:53 | W 9 | 10.00 | Mostly Cloudy | SCT034 BKN041 BKN055 | 50 | 42.1 | 74% | 47 | 30.18 | 1021.9 | ||||||
| 30 | 13:53 | W 12 | 10.00 | Mostly Cloudy | SCT021 BKN035 BKN065 | 48.9 | 43 | 80% | 45 | 30.18 | 1021.8 | 0.01 | |||||
| 30 | 12:53 | W 13 | 10.00 | Light Rain | SCT022 BKN036 BKN065 | 48 | 44.1 | 86% | 43 | 30.17 | 1021.7 | ||||||
| 30 | 11:53 | W 9 | 10.00 | Overcast | FEW009 BKN032 OVC055 | 50 | 43 | 77% | 47 | 30.16 | 1021.3 | ||||||
| 30 | 10:53 | Calm | 10.00 | Overcast | FEW007 BKN025 OVC060 | 48.9 | 45 | 86% | 30.15 | 1020.9 | |||||||
| 30 | 09:53 | E 5 | 10.00 | Light Rain | SCT007 BKN027 OVC045 | 48 | 46.9 | 48 | 46 | 96% | 47 | 30.13 | 1020.2 | 0.08 | |||
| 30 | 08:53 | E 6 | 8.00 | Overcast | FEW006 BKN028 OVC045 | 46.9 | 45 | 93% | 45 | 30.12 | 1019.9 | 0.03 | |||||
| 30 | 07:53 | NE 3 | 4.00 | Light Rain Fog/Mist | SCT006 BKN014 OVC023 | 46 | 45 | 96% | 30.11 | 1019.7 | 0.03 | ||||||
| 30 | 06:53 | SE 7 | 5.00 | Light Rain Fog/Mist | SCT006 BKN023 OVC034 | 46 | 45 | 96% | 43 | 30.08 | 1018.7 | 0.02 | 0.02 | ||||
| 30 | 05:53 | SE 16 | 6.00 | Light Rain Fog/Mist | SCT006 BKN026 OVC070 | 46 | 44.1 | 93% | 40 | 30.07 | 1018.1 | ||||||
| 30 | 04:53 | SE 21 G 32 | 6.00 | Light Rain Fog/Mist and Breezy | FEW006 BKN026 OVC070 | 46 | 44.1 | 93% | 39 | 30.05 | 1017.7 | ||||||
| 30 | 03:53 | SE 21 | 6.00 | Light Rain Fog/Mist and Breezy | SCT005 BKN028 OVC065 | 46.9 | 45 | 48 | 46 | 93% | 40 | 30.05 | 1017.7 | 0.05 | |||
| 30 | 02:53 | E 20 | 8.00 | Light Rain | SCT005 BKN028 OVC055 | 46.9 | 44.1 | 90% | 40 | 30.05 | 1017.6 | ||||||
| 30 | 01:53 | SE 21 | 10.00 | Light Rain and Breezy | FEW005 BKN055 OVC070 | 46.9 | 45 | 93% | 40 | 30.06 | 1017.8 | ||||||
| 30 | 00:53 | SE 20 G 31 | 9.00 | Light Rain | FEW005 SCT029 OVC060 | 46.9 | 45 | 93% | 40 | 30.05 | 1017.7 | 0.01 | 0.05 | ||||
| 29 | 23:53 | E 20 G 29 | 10.00 | Light Rain | FEW005 SCT033 OVC060 | 46.9 | 45 | 93% | 40 | 30.06 | 1017.9 | 0.01 | |||||
| 29 | 22:53 | E 22 G 30 | 7.00 | Light Rain and Breezy | FEW005 SCT030 OVC060 | 48 | 46 | 93% | 41 | 30.07 | 1018.2 | 0.03 | |||||
| 29 | 21:53 | SE 20 | 7.00 | Light Rain | FEW005 SCT033 OVC055 | 48 | 46 | 48 | 46.9 | 93% | 42 | 30.08 | 1018.4 | 0.03 | 0.13 | ||
| 29 | 20:53 | E 15 | 9.00 | Light Rain | FEW005 SCT030 OVC055 | 46.9 | 46 | 97% | 41 | 30.08 | 1018.6 | 0.03 | |||||
| 29 | 19:53 | SE 18 G 29 | 9.00 | Light Rain | FEW008 SCT031 OVC055 | 48 | 46 | 93% | 42 | 30.09 | 1018.8 | 0.01 | |||||
| 29 | 18:53 | E 18 | 9.00 | Light Rain | FEW005 SCT027 OVC055 | 48 | 46 | 93% | 42 | 30.1 | 1019.3 | 0.02 | 0.06 | ||||
| 29 | 17:53 | SE 20 | 10.00 | Light Rain | FEW006 BKN025 OVC060 | 48 | 45 | 89% | 42 | 30.12 | 1019.8 | 0.02 | |||||
| 29 | 16:53 | SE 23 G 32 | 10.00 | Light Rain and Breezy | FEW005 BKN027 OVC060 | 48 | 45 | 89% | 41 | 30.12 | 1020.0 | 0.02 | |||||
| 29 | 15:53 | E 21 G 30 | 10.00 | Light Rain and Breezy | FEW007 BKN029 OVC055 | 46.9 | 45 | 48 | 45 | 93% | 40 | 30.13 | 1020.4 | 0.02 | 0.15 | ||
| 29 | 14:53 | SE 18 G 30 | 10.00 | Light Rain | FEW014 BKN027 OVC055 | 46.9 | 45 | 93% | 40 | 30.15 | 1020.8 | 0.03 | |||||
| 29 | 13:53 | E 22 G 30 | 10.00 | Light Rain and Breezy | FEW015 BKN029 OVC070 | 45 | 44.1 | 97% | 37 | 30.15 | 1021.1 | 0.08 | |||||
| 29 | 12:53 | E 20 G 26 | 7.00 | Light Rain | FEW008 BKN030 OVC042 | 46 | 45 | 96% | 39 | 30.16 | 1021.3 | 0.02 | 0.02 | ||||
| Date | Time (akdt) | Wind (mph) | Vis. (mi.) | Weather | Sky Cond. | Air | Dwpt | Max. | Min. | Relative Humidity | Wind Chill (°F) | Heat Index (°F) | altimeter (in) | sea level (mb) | 1 hr | 3 hr | 6 hr |
| 6 hour | |||||||||||||||||
| Temperature (ºF) | Pressure | Precipitation (in) | |||||||||||||||